createdAt,value
2022-10-05T00:01:39.506Z,94.59
2022-10-05T00:04:28.193Z,94.32
2022-10-05T00:07:17.385Z,94.42
2022-10-05T00:10:10.911Z,94.58
2022-10-05T00:12:56.838Z,94.49
2022-10-05T00:15:43.037Z,94.54
2022-10-05T00:18:28.864Z,94.53
2022-10-05T00:21:23.588Z,94.53
2022-10-05T00:24:10.497Z,94.71
2022-10-05T00:26:58.179Z,94.88
2022-10-05T00:29:45.456Z,94.71
2022-10-05T00:32:30.988Z,94.59
2022-10-05T00:35:17.781Z,94.77
2022-10-05T00:38:03.370Z,94.86
2022-10-05T00:41:13.363Z,94.90
2022-10-05T00:44:13.996Z,94.92
2022-10-05T00:47:05.960Z,95.15
2022-10-05T00:49:54.322Z,95.29
2022-10-05T00:53:07.354Z,95.26
2022-10-05T00:56:15.655Z,95.28
2022-10-05T00:59:20.619Z,95.06
2022-10-05T01:02:16.305Z,95.43
2022-10-05T01:05:32.998Z,95.14
2022-10-05T01:08:34.721Z,95.32
2022-10-05T01:11:30.922Z,95.07
2022-10-05T01:15:00.940Z,95.61
2022-10-05T01:18:10.660Z,95.36
2022-10-05T01:21:01.811Z,95.52
2022-10-05T01:24:15.969Z,95.39
2022-10-05T01:27:11.841Z,95.29
2022-10-05T01:30:13.456Z,95.46
2022-10-05T01:33:29.758Z,95.58
2022-10-05T01:36:26.020Z,95.38
2022-10-05T01:39:23.621Z,95.55
2022-10-05T01:42:42.503Z,95.56
2022-10-05T01:46:07.436Z,95.51
2022-10-05T01:49:12.146Z,95.53
2022-10-05T01:52:18.869Z,95.33
2022-10-05T01:55:17.245Z,95.52
2022-10-05T01:58:22.011Z,95.66
2022-10-05T02:01:24.258Z,95.87
2022-10-05T02:04:56.594Z,95.67
2022-10-05T02:07:36.716Z,95.63
2022-10-05T02:10:30.628Z,96.02
2022-10-05T02:13:35.221Z,95.59
2022-10-05T02:16:24.759Z,95.70
2022-10-05T02:19:18.597Z,95.61
2022-10-05T02:22:13.338Z,95.49
2022-10-05T02:25:02.159Z,95.69
2022-10-05T02:28:36.882Z,95.83
2022-10-05T02:31:31.477Z,95.94
2022-10-05T02:34:39.788Z,95.52
2022-10-05T02:38:12.684Z,95.55
2022-10-05T02:41:38.403Z,95.51
2022-10-05T02:44:35.564Z,95.48
2022-10-05T02:47:51.913Z,95.61
2022-10-05T02:50:54.070Z,95.48
2022-10-05T02:54:20.696Z,95.59
2022-10-05T02:57:16.867Z,95.66
2022-10-05T03:00:18.775Z,95.52
2022-10-05T03:03:17.933Z,95.12
2022-10-05T03:06:06.973Z,95.67
2022-10-05T03:09:00.613Z,95.39
2022-10-05T03:12:02.530Z,95.41
2022-10-05T03:14:48.433Z,95.55
2022-10-05T03:17:50.229Z,95.42
2022-10-05T03:20:49.850Z,95.53
2022-10-05T03:24:17.376Z,95.60
2022-10-05T03:27:22.797Z,95.68
2022-10-05T03:30:13.168Z,95.71
2022-10-05T03:33:31.675Z,95.51
2022-10-05T03:36:46.777Z,96.10
2022-10-05T03:39:38.035Z,95.61
2022-10-05T03:42:39.239Z,95.89
2022-10-05T03:45:35.724Z,95.80
2022-10-05T03:48:30.300Z,95.63
2022-10-05T03:51:21.057Z,95.51
2022-10-05T03:54:16.893Z,95.76
2022-10-05T03:57:11.428Z,95.61
2022-10-05T04:00:09.189Z,95.99
2022-10-05T04:03:19.138Z,95.94
2022-10-05T04:06:13.564Z,95.72
2022-10-05T04:09:03.529Z,96.00
2022-10-05T04:11:58.584Z,95.86
2022-10-05T04:14:48.427Z,96.03
2022-10-05T04:17:39.409Z,95.84
2022-10-05T04:20:46.888Z,95.85
2022-10-05T04:23:43.898Z,96.06
2022-10-05T04:26:57.557Z,95.84
2022-10-05T04:30:08.142Z,95.83
2022-10-05T04:32:59.719Z,96.06
2022-10-05T04:36:05.298Z,96.07
2022-10-05T04:39:03.148Z,96.10
2022-10-05T04:42:02.296Z,95.96
2022-10-05T04:44:59.313Z,95.97
2022-10-05T04:47:52.423Z,95.88
2022-10-05T04:51:06.279Z,95.99
2022-10-05T04:53:55.385Z,95.98
2022-10-05T04:56:45.891Z,95.80
2022-10-05T04:59:50.676Z,96.00
2022-10-05T05:03:15.893Z,95.82
2022-10-05T05:06:17.420Z,96.02
2022-10-05T05:09:18.745Z,95.78
2022-10-05T05:12:30.496Z,95.88
2022-10-05T05:15:30.827Z,95.84
2022-10-05T05:18:36.721Z,95.84
2022-10-05T05:21:53.559Z,96.13
2022-10-05T05:25:17.226Z,95.87
2022-10-05T05:28:35.157Z,95.97
2022-10-05T05:31:28.852Z,95.82
2022-10-05T05:34:43.766Z,95.48
2022-10-05T05:37:38.033Z,95.80
2022-10-05T05:40:32.285Z,95.76
2022-10-05T05:43:32.686Z,95.35
2022-10-05T05:46:39.116Z,95.48
2022-10-05T05:49:51.287Z,95.14
2022-10-05T05:52:47.324Z,95.38
2022-10-05T05:55:40.586Z,95.24
2022-10-05T05:58:35.722Z,95.19
2022-10-05T06:01:43.423Z,94.80
2022-10-05T06:04:37.848Z,95.09
2022-10-05T06:07:30.618Z,94.84
2022-10-05T06:10:35.039Z,94.67
2022-10-05T06:13:38.199Z,94.72
2022-10-05T06:16:46.422Z,94.60
2022-10-05T06:19:33.552Z,94.82
2022-10-05T06:22:29.308Z,94.51
2022-10-05T06:25:25.891Z,94.55
2022-10-05T06:28:13.273Z,94.39
2022-10-05T06:31:29.928Z,93.79
2022-10-05T06:34:54.322Z,93.17
2022-10-05T06:37:46.121Z,92.85
2022-10-05T06:40:37.882Z,93.08
2022-10-05T06:43:36.009Z,92.84
2022-10-05T06:46:58.286Z,92.73
2022-10-05T06:50:34.046Z,92.49
2022-10-05T06:53:49.003Z,92.33
2022-10-05T06:56:34.994Z,92.26
2022-10-05T06:59:32.577Z,92.01
2022-10-05T07:02:44.117Z,91.80
2022-10-05T07:06:01.490Z,91.80
2022-10-05T07:09:21.412Z,90.97
2022-10-05T07:12:33.801Z,91.04
2022-10-05T07:15:29.513Z,91.05
2022-10-05T07:18:45.831Z,90.67
2022-10-05T07:21:43.653Z,90.53
2022-10-05T07:24:34.998Z,90.14
2022-10-05T07:27:23.257Z,89.81
2022-10-05T07:30:12.804Z,89.34
2022-10-05T07:33:14.783Z,88.59
2022-10-05T07:36:29.022Z,87.98
2022-10-05T07:39:59.811Z,87.17
2022-10-05T07:43:06.291Z,87.07
2022-10-05T07:46:11.342Z,86.63
2022-10-05T07:49:03.436Z,86.93
2022-10-05T07:51:57.213Z,86.35
2022-10-05T07:54:59.801Z,85.88
2022-10-05T07:58:11.377Z,85.20
2022-10-05T08:01:02.492Z,84.50
2022-10-05T08:03:53.645Z,84.96
2022-10-05T08:06:57.742Z,84.16
2022-10-05T08:09:52.190Z,84.27
2022-10-05T08:12:54.586Z,83.67
2022-10-05T08:15:43.194Z,83.52
2022-10-05T08:18:44.367Z,82.87
2022-10-05T08:21:39.479Z,82.13
2022-10-05T08:24:58.444Z,81.69
2022-10-05T08:28:00.146Z,81.54
2022-10-05T08:30:56.081Z,81.50
2022-10-05T08:33:53.064Z,80.78
2022-10-05T08:36:39.053Z,81.02
2022-10-05T08:39:32.172Z,80.81
2022-10-05T08:42:36.739Z,80.77
2022-10-05T08:45:46.832Z,80.39
2022-10-05T08:49:20.887Z,79.53
2022-10-05T08:52:15.446Z,79.77
2022-10-05T08:55:10.600Z,79.33
2022-10-05T08:58:18.283Z,78.31
2022-10-05T09:01:04.026Z,78.15
2022-10-05T09:04:28.222Z,76.49
2022-10-05T09:07:19.848Z,76.78
2022-10-05T09:10:30.461Z,76.29
2022-10-05T09:13:16.054Z,76.00
2022-10-05T09:16:21.691Z,76.27
2022-10-05T09:20:03.220Z,74.25
2022-10-05T09:23:03.182Z,74.02
2022-10-05T09:25:59.912Z,74.70
2022-10-05T09:29:18.032Z,74.03
2022-10-05T09:32:05.421Z,74.26
2022-10-05T09:34:55.616Z,73.58
2022-10-05T09:38:19.528Z,73.61
2022-10-05T09:41:17.505Z,73.19
2022-10-05T09:44:24.828Z,73.09
2022-10-05T09:47:45.175Z,72.19
2022-10-05T09:50:46.053Z,72.36
2022-10-05T09:54:02.937Z,71.65
2022-10-05T09:57:15.239Z,71.50
2022-10-05T10:00:21.704Z,71.22
2022-10-05T10:03:45.555Z,71.18
2022-10-05T10:06:46.553Z,70.64
2022-10-05T10:09:46.785Z,69.08
2022-10-05T10:12:59.261Z,69.05
2022-10-05T10:16:09.901Z,69.49
2022-10-05T10:19:22.180Z,69.49
2022-10-05T10:22:30.656Z,69.18
2022-10-05T10:25:34.765Z,69.13
2022-10-05T10:28:20.728Z,68.60
2022-10-05T10:31:09.174Z,68.01
2022-10-05T10:34:30.522Z,67.46
2022-10-05T10:37:39.521Z,67.80
2022-10-05T10:40:50.531Z,67.24
2022-10-05T10:43:57.584Z,67.01
2022-10-05T10:47:05.193Z,67.27
2022-10-05T10:50:05.017Z,66.97
2022-10-05T10:53:22.902Z,66.34
2022-10-05T10:56:29.148Z,65.40
2022-10-05T10:59:30.766Z,65.59
2022-10-05T11:02:27.863Z,65.99
2022-10-05T11:05:25.844Z,66.43
2022-10-05T11:08:29.959Z,65.95
2022-10-05T11:11:40.184Z,65.74
2022-10-05T11:14:37.723Z,65.13
2022-10-05T11:18:00.924Z,64.79
2022-10-05T11:21:23.295Z,64.63
2022-10-05T11:24:22.081Z,65.51
2022-10-05T11:27:26.423Z,65.27
2022-10-05T11:30:35.293Z,65.19
2022-10-05T11:34:05.230Z,64.76
2022-10-05T11:37:09.955Z,64.96
2022-10-05T11:40:10.888Z,64.75
2022-10-05T11:43:12.017Z,64.28
2022-10-05T11:46:16.140Z,64.83
2022-10-05T11:49:19.997Z,64.63
2022-10-05T11:52:26.310Z,64.37
2022-10-05T11:55:43.945Z,64.79
2022-10-05T11:58:37.809Z,64.16
2022-10-05T12:01:37.823Z,63.75
2022-10-05T12:05:10.926Z,63.20
2022-10-05T12:08:11.972Z,63.28
2022-10-05T12:11:25.114Z,63.33
2022-10-05T12:14:20.221Z,63.58
2022-10-05T12:17:33.029Z,63.50
2022-10-05T12:20:33.681Z,63.13
2022-10-05T12:23:24.411Z,63.57
2022-10-05T12:26:22.262Z,63.44
2022-10-05T12:29:13.808Z,63.59
2022-10-05T12:32:19.268Z,63.91
2022-10-05T12:35:36.195Z,64.15
2022-10-05T12:38:22.993Z,63.98
2022-10-05T12:41:27.724Z,63.54
2022-10-05T12:44:39.693Z,63.29
2022-10-05T12:47:44.917Z,63.89
2022-10-05T12:50:48.369Z,63.50
2022-10-05T12:54:06.362Z,63.24
2022-10-05T12:57:00.625Z,63.29
2022-10-05T12:59:53.311Z,63.53
2022-10-05T13:03:09.830Z,63.18
2022-10-05T13:06:14.384Z,63.66
2022-10-05T13:09:11.519Z,63.46
2022-10-05T13:12:03.744Z,63.10
2022-10-05T13:15:04.672Z,63.51
2022-10-05T13:17:56.145Z,63.35
2022-10-05T13:20:46.905Z,63.77
2022-10-05T13:23:35.013Z,63.59
2022-10-05T13:26:26.377Z,64.10
2022-10-05T13:29:30.083Z,64.11
2022-10-05T13:32:19.964Z,64.38
2022-10-05T13:35:36.069Z,65.00
2022-10-05T13:38:47.424Z,65.19
2022-10-05T13:41:58.221Z,65.34
2022-10-05T13:44:51.357Z,65.71
2022-10-05T13:47:41.804Z,65.91
2022-10-05T13:50:34.573Z,66.43
2022-10-05T13:53:31.781Z,66.64
2022-10-05T13:56:22.772Z,66.76
2022-10-05T13:59:21.201Z,67.01
2022-10-05T14:02:12.476Z,67.32
2022-10-05T14:05:04.531Z,67.73
2022-10-05T14:08:04.093Z,68.09
2022-10-05T14:10:49.965Z,68.38
2022-10-05T14:13:46.740Z,68.63
2022-10-05T14:16:33.630Z,68.51
2022-10-05T14:19:24.311Z,68.77
2022-10-05T14:22:22.284Z,68.73
2022-10-05T14:25:07.829Z,68.60
2022-10-05T14:28:01.549Z,68.81
2022-10-05T14:30:59.237Z,68.88
2022-10-05T14:33:45.015Z,68.62
2022-10-05T14:36:39.232Z,68.72
2022-10-05T14:39:26.376Z,68.87
2022-10-05T14:42:14.958Z,68.79
2022-10-05T14:45:15.732Z,68.92
2022-10-05T14:48:01.762Z,69.22
2022-10-05T14:51:03.419Z,69.09
2022-10-05T14:54:00.673Z,69.18
2022-10-05T14:56:50.109Z,69.35
2022-10-05T14:59:53.826Z,69.86
2022-10-05T15:02:55.568Z,70.00
2022-10-05T15:05:55.929Z,70.14
2022-10-05T15:08:54.699Z,70.50
2022-10-05T15:11:49.063Z,70.96
2022-10-05T15:14:41.065Z,71.08
2022-10-05T15:17:34.684Z,71.51
2022-10-05T15:20:27.147Z,71.60
2022-10-05T15:23:24.673Z,71.87
2022-10-05T15:26:25.535Z,72.04
2022-10-05T15:29:33.120Z,72.88
2022-10-05T15:32:45.568Z,73.08
2022-10-05T15:35:41.585Z,73.50
2022-10-05T15:38:29.315Z,73.56
2022-10-05T15:41:20.415Z,73.78
2022-10-05T15:44:26.027Z,74.27
2022-10-05T15:47:26.018Z,74.38
2022-10-05T15:50:43.979Z,74.33
2022-10-05T15:54:16.015Z,74.52
2022-10-05T15:57:43.160Z,74.89
2022-10-05T16:00:32.967Z,74.96
2022-10-05T16:03:44.548Z,75.26
2022-10-05T16:06:57.377Z,75.43
2022-10-05T16:09:47.501Z,75.65
2022-10-05T16:12:55.080Z,75.57
2022-10-05T16:16:02.805Z,75.87
2022-10-05T16:19:05.523Z,76.05
2022-10-05T16:22:02.677Z,76.35
2022-10-05T16:25:26.948Z,76.37
2022-10-05T16:28:39.217Z,76.70
2022-10-05T16:31:40.145Z,76.73
2022-10-05T16:34:31.772Z,77.13
2022-10-05T16:37:47.505Z,76.99
2022-10-05T16:40:33.051Z,77.31
2022-10-05T16:43:37.417Z,77.18
2022-10-05T16:46:39.786Z,77.57
2022-10-05T16:49:32.775Z,77.40
2022-10-05T16:52:19.348Z,77.39
2022-10-05T16:55:12.264Z,77.74
2022-10-05T16:57:58.764Z,77.90
2022-10-05T17:01:08.042Z,78.13
2022-10-05T17:04:15.072Z,78.17
2022-10-05T17:07:32.850Z,78.46
2022-10-05T17:10:42.826Z,78.61
2022-10-05T17:14:00.909Z,78.83
2022-10-05T17:17:24.441Z,79.19
2022-10-05T17:20:26.415Z,79.29
2022-10-05T17:23:48.626Z,79.51
2022-10-05T17:26:54.768Z,79.83
2022-10-05T17:29:53.703Z,79.78
2022-10-05T17:32:57.473Z,80.26
2022-10-05T17:36:09.692Z,80.64
2022-10-05T17:39:20.064Z,80.55
2022-10-05T17:42:30.024Z,80.94
2022-10-05T17:45:15.832Z,81.00
2022-10-05T17:48:05.302Z,80.92
2022-10-05T17:51:10.044Z,81.56
2022-10-05T17:54:14.261Z,81.54
2022-10-05T17:56:59.642Z,81.56
2022-10-05T17:59:55.636Z,81.67
2022-10-05T18:02:42.943Z,81.89
2022-10-05T18:05:29.837Z,82.32
2022-10-05T18:08:17.624Z,82.35
2022-10-05T18:11:08.881Z,82.64
2022-10-05T18:14:23.183Z,82.51
2022-10-05T18:17:12.586Z,82.48
2022-10-05T18:20:21.761Z,82.71
2022-10-05T18:23:07.393Z,82.65
2022-10-05T18:26:02.130Z,82.67
2022-10-05T18:28:57.069Z,82.62
2022-10-05T18:31:56.401Z,82.67
2022-10-05T18:35:01.979Z,82.86
2022-10-05T18:38:07.025Z,82.73
2022-10-05T18:41:09.181Z,82.85
2022-10-05T18:44:11.940Z,82.72
2022-10-05T18:47:03.434Z,82.96
2022-10-05T18:50:11.801Z,83.11
2022-10-05T18:53:20.322Z,83.17
2022-10-05T18:56:24.400Z,83.37
2022-10-05T18:59:28.633Z,83.17
2022-10-05T19:02:50.195Z,83.27
2022-10-05T19:05:48.301Z,83.32
2022-10-05T19:09:22.721Z,83.36
2022-10-05T19:12:41.272Z,83.52
2022-10-05T19:15:46.805Z,83.50
2022-10-05T19:18:32.574Z,83.46
2022-10-05T19:21:39.468Z,83.65
2022-10-05T19:24:52.040Z,83.77
2022-10-05T19:28:11.529Z,83.68
2022-10-05T19:31:00.514Z,83.67
2022-10-05T19:34:02.993Z,83.90
2022-10-05T19:37:03.921Z,83.72
2022-10-05T19:40:12.401Z,83.80
2022-10-05T19:43:05.780Z,83.88
2022-10-05T19:45:54.359Z,83.97
2022-10-05T19:48:44.526Z,83.92
2022-10-05T19:51:34.429Z,84.07
2022-10-05T19:54:25.857Z,83.98
2022-10-05T19:57:17.932Z,84.12
2022-10-05T20:00:04.192Z,84.12
2022-10-05T20:02:51.395Z,84.28
2022-10-05T20:05:37.599Z,84.38
2022-10-05T20:08:26.957Z,84.58
2022-10-05T20:11:21.247Z,84.67
2022-10-05T20:14:07.638Z,84.74
2022-10-05T20:17:34.123Z,84.79
2022-10-05T20:20:35.946Z,84.84
2022-10-05T20:23:25.643Z,84.81
2022-10-05T20:27:05.545Z,85.05
2022-10-05T20:29:51.366Z,85.17
2022-10-05T20:32:51.451Z,85.33
2022-10-05T20:35:37.123Z,85.61
2022-10-05T20:38:22.778Z,85.40
2022-10-05T20:41:08.436Z,85.51
2022-10-05T20:43:55.816Z,85.88
2022-10-05T20:46:41.825Z,85.53
2022-10-05T20:49:31.795Z,85.74
2022-10-05T20:52:17.523Z,85.80
2022-10-05T20:55:07.259Z,85.85
2022-10-05T20:57:53.145Z,85.70
2022-10-05T21:00:57.065Z,85.94
2022-10-05T21:03:42.993Z,86.05
2022-10-05T21:06:29.478Z,86.00
2022-10-05T21:09:19.325Z,86.03
2022-10-05T21:12:05.226Z,86.19
2022-10-05T21:14:52.639Z,85.92
2022-10-05T21:17:38.902Z,86.13
2022-10-05T21:20:24.701Z,86.25
2022-10-05T21:23:12.251Z,86.26
2022-10-05T21:25:58.870Z,86.24
2022-10-05T21:28:44.783Z,86.05
2022-10-05T21:31:30.562Z,86.36
2022-10-05T21:34:16.072Z,86.42
2022-10-05T21:37:01.706Z,86.48
2022-10-05T21:39:47.336Z,86.21
2022-10-05T21:42:33.398Z,86.28
2022-10-05T21:45:18.738Z,86.08
2022-10-05T21:48:04.843Z,86.71
2022-10-05T21:50:50.552Z,86.60
2022-10-05T21:53:41.542Z,86.47
2022-10-05T21:56:34.757Z,86.59
2022-10-05T21:59:22.409Z,86.64
2022-10-05T22:02:08.213Z,86.82
2022-10-05T22:04:53.905Z,86.73
2022-10-05T22:07:39.526Z,86.83
2022-10-05T22:10:25.427Z,86.86
2022-10-05T22:13:11.231Z,86.84
2022-10-05T22:15:57.717Z,87.12
2022-10-05T22:18:43.436Z,87.07
2022-10-05T22:21:29.838Z,87.03
2022-10-05T22:24:15.584Z,87.27
2022-10-05T22:27:01.172Z,87.18
2022-10-05T22:29:47.134Z,87.25
2022-10-05T22:32:33.059Z,87.44
2022-10-05T22:35:18.509Z,87.48
2022-10-05T22:38:04.878Z,87.61
2022-10-05T22:40:50.416Z,87.60
2022-10-05T22:43:36.817Z,87.49
2022-10-05T22:46:22.666Z,87.67
2022-10-05T22:49:08.474Z,87.76
2022-10-05T22:51:54.818Z,87.87
2022-10-05T22:54:40.690Z,87.75
2022-10-05T22:57:26.504Z,88.15
2022-10-05T23:00:12.953Z,88.09
2022-10-05T23:02:58.489Z,88.07
2022-10-05T23:05:44.328Z,88.08
2022-10-05T23:08:31.557Z,88.32
2022-10-05T23:11:23.766Z,88.29
2022-10-05T23:14:09.126Z,88.50
2022-10-05T23:16:55.050Z,88.56
2022-10-05T23:19:41.779Z,88.79
2022-10-05T23:22:27.341Z,88.92
2022-10-05T23:25:14.067Z,88.83
2022-10-05T23:28:01.835Z,88.88
2022-10-05T23:30:47.416Z,88.86
2022-10-05T23:33:33.530Z,89.15
2022-10-05T23:36:24.180Z,89.09
2022-10-05T23:39:10.583Z,89.22
2022-10-05T23:41:56.375Z,89.48
2022-10-05T23:44:42.156Z,89.41
2022-10-05T23:47:27.756Z,89.41
2022-10-05T23:50:13.464Z,89.51
2022-10-05T23:52:59.087Z,89.76
2022-10-05T23:55:45.422Z,89.43
2022-10-05T23:58:31.853Z,89.77
